Aviation Digital Data Service (ADDS)

Output produced by METARs form (0117 UTC 29 November 2020)
found at http://www.aviationweather.gov/metar/data/
 
LFRN 290100Z AUTO 05002KT 7000 2700 NSC 05/05 Q1018 TEMPO 0500 FG
TAF LFRN 282300Z 2900/2924 VRB05KT 8000 NSC 
     TEMPO 2900/2908 3000 BR 
     PROB30 
     TEMPO 2902/2907 0500 FG 
     TEMPO 2914/2920 03010KT 
     BECMG 2922/2924 3000 BR